Weather at Lovely Banks Airport

Public forecast

Using degrees Celsius for public forecast. Weather courtesy of forecast.io.

Closest aviation weather report (METAR) to Lovely Banks Airport

Closest report is Avalon Airport, 6.4 nm (11.9 km) E.

2024/06/18 18:00 (retrieved 34 minutes ago)

YMAV 181800Z AUTO 30005KT 9999 // NCD 00/M01 Q1017 RF000/0000

Closest aviation forecast (TAF) to Lovely Banks Airport

Closest forecast is Avalon Airport, 6.4 nm (11.9 km) E.

2024/06/18 18:36 (retrieved 0 seconds ago)

TAF YMAV 181706Z 1818/1918 28005KT 9999 FEW040 FM190100 09006KT 9999 FEW040 FM191000 30005KT 9999 FEW040 FM191300 01008KT 9999 BKN040